createdAt,value
2022-09-11T00:00:41.871Z,29.70
2022-09-11T00:03:08.445Z,29.95
2022-09-11T00:05:39.801Z,30.02
2022-09-11T00:08:12.002Z,28.88
2022-09-11T00:10:40.755Z,29.63
2022-09-11T00:13:08.087Z,28.02
2022-09-11T00:15:39.295Z,29.55
2022-09-11T00:18:07.710Z,30.02
2022-09-11T00:20:35.194Z,27.33
2022-09-11T00:23:04.897Z,28.48
2022-09-11T00:25:36.056Z,28.67
2022-09-11T00:28:02.922Z,30.02
2022-09-11T00:30:30.051Z,30.95
2022-09-11T00:32:56.427Z,30.27
2022-09-11T00:35:22.821Z,30.70
2022-09-11T00:37:49.230Z,29.98
2022-09-11T00:40:17.261Z,31.77
2022-09-11T00:42:44.406Z,30.55
2022-09-11T00:45:26.411Z,32.10
2022-09-11T00:47:58.346Z,30.92
2022-09-11T00:50:27.932Z,30.58
2022-09-11T00:53:02.467Z,31.73
2022-09-11T00:55:32.455Z,30.98
2022-09-11T00:58:03.967Z,30.50
2022-09-11T01:00:30.799Z,32.47
2022-09-11T01:02:57.906Z,30.65
2022-09-11T01:05:27.644Z,29.95
2022-09-11T01:07:56.036Z,30.25
2022-09-11T01:10:57.791Z,32.25
2022-09-11T01:13:56.931Z,28.38
2022-09-11T01:16:42.848Z,29.80
2022-09-11T01:19:46.352Z,27.00
2022-09-11T01:23:02.849Z,26.48
2022-09-11T01:25:31.933Z,27.33
2022-09-11T01:28:00.986Z,27.10
2022-09-11T01:30:38.367Z,25.83
2022-09-11T01:33:28.066Z,24.60
2022-09-11T01:36:29.034Z,26.73
2022-09-11T01:38:58.507Z,24.83
2022-09-11T01:41:31.981Z,26.48
2022-09-11T01:44:03.987Z,25.98
2022-09-11T01:46:35.896Z,24.38
2022-09-11T01:49:12.723Z,26.88
2022-09-11T01:51:40.457Z,27.45
2022-09-11T01:54:12.876Z,26.65
2022-09-11T01:56:45.373Z,28.30
2022-09-11T01:59:16.322Z,31.40
2022-09-11T02:01:51.165Z,32.42
2022-09-11T02:04:33.741Z,29.75
2022-09-11T02:07:42.440Z,31.73
2022-09-11T02:10:17.115Z,30.70
2022-09-11T02:13:07.314Z,29.38
2022-09-11T02:15:41.624Z,30.67
2022-09-11T02:18:37.862Z,32.87
2022-09-11T02:21:04.355Z,30.08
2022-09-11T02:23:30.774Z,31.08
2022-09-11T02:25:57.175Z,28.40
2022-09-11T02:28:23.908Z,30.45
2022-09-11T02:30:50.388Z,30.40
2022-09-11T02:33:35.904Z,28.05
2022-09-11T02:39:27.384Z,30.02
2022-09-11T02:42:21.982Z,29.70
2022-09-11T02:44:56.654Z,28.30
2022-09-11T02:47:43.558Z,31.38
2022-09-11T02:50:18.981Z,30.75
2022-09-11T02:52:54.487Z,30.00
2022-09-11T02:55:25.240Z,29.40
2022-09-11T02:57:59.286Z,29.25
2022-09-11T03:00:25.741Z,28.95
2022-09-11T03:02:53.530Z,29.85
2022-09-11T03:05:20.571Z,26.95
2022-09-11T03:07:47.162Z,30.85
2022-09-11T03:10:13.631Z,31.45
2022-09-11T03:12:39.987Z,31.85
2022-09-11T03:15:07.214Z,30.98
2022-09-11T03:17:33.625Z,32.30
2022-09-11T03:20:00.003Z,29.25
2022-09-11T03:22:26.398Z,29.33
2022-09-11T03:24:52.763Z,31.08
2022-09-11T03:27:19.152Z,31.02
2022-09-11T03:29:46.387Z,28.65
2022-09-11T03:32:12.807Z,29.98
2022-09-11T03:34:39.125Z,30.00
2022-09-11T03:37:05.436Z,31.05
2022-09-11T03:39:31.782Z,30.15
2022-09-11T03:41:58.284Z,29.95
2022-09-11T03:44:25.515Z,32.08
2022-09-11T03:46:52.981Z,32.88
2022-09-11T03:49:20.279Z,34.13
2022-09-11T03:51:47.768Z,32.42
2022-09-11T03:54:16.016Z,34.38
2022-09-11T03:56:42.939Z,36.05
2022-09-11T03:59:09.349Z,34.70
2022-09-11T04:01:35.687Z,32.78
2022-09-11T04:04:04.611Z,34.30
2022-09-11T04:06:34.628Z,34.17
2022-09-11T04:09:01.289Z,35.92
2022-09-11T04:14:11.092Z,36.53
2022-09-11T04:16:37.831Z,34.42
2022-09-11T04:19:04.652Z,34.00
2022-09-11T04:21:31.777Z,35.92
2022-09-11T04:24:00.234Z,35.33
2022-09-11T04:26:31.572Z,35.70
2022-09-11T04:28:59.033Z,35.10
2022-09-11T04:31:27.535Z,35.90
2022-09-11T04:33:57.484Z,35.78
2022-09-11T04:36:26.893Z,36.08
2022-09-11T04:38:58.195Z,36.15
2022-09-11T04:41:25.391Z,34.10
2022-09-11T04:43:57.600Z,32.85
2022-09-11T04:46:26.925Z,31.60
2022-09-11T04:49:02.297Z,34.88
2022-09-11T04:51:34.696Z,34.00
2022-09-11T04:54:02.027Z,34.78
2022-09-11T04:56:34.261Z,33.38
2022-09-11T04:59:06.814Z,32.83
2022-09-11T05:01:34.079Z,34.08
2022-09-11T05:04:01.580Z,31.58
2022-09-11T05:06:30.405Z,34.08
2022-09-11T05:09:01.691Z,33.58
2022-09-11T05:11:28.145Z,34.22
2022-09-11T05:13:54.495Z,36.53
2022-09-11T05:16:21.131Z,35.30
2022-09-11T05:18:52.473Z,32.58
2022-09-11T05:21:22.537Z,36.05
2022-09-11T05:23:51.274Z,34.28
2022-09-11T05:26:20.169Z,36.42
2022-09-11T05:28:47.063Z,36.53
2022-09-11T05:31:18.146Z,35.90
2022-09-11T05:33:45.444Z,38.13
2022-09-11T05:36:13.574Z,34.53
2022-09-11T05:38:40.115Z,34.75
2022-09-11T05:41:08.720Z,37.47
2022-09-11T05:43:35.417Z,35.50
2022-09-11T05:46:02.174Z,38.22
2022-09-11T05:48:30.319Z,36.50
2022-09-11T05:51:01.970Z,38.30
2022-09-11T05:53:32.822Z,38.13
2022-09-11T05:56:13.905Z,36.35
2022-09-11T05:58:40.323Z,37.63
2022-09-11T06:01:09.336Z,40.17
2022-09-11T06:03:37.278Z,38.25
2022-09-11T06:06:06.544Z,36.75
2022-09-11T06:08:34.510Z,37.20
2022-09-11T06:11:04.133Z,37.80
2022-09-11T06:13:34.054Z,37.05
2022-09-11T06:16:00.649Z,33.47
2022-09-11T06:18:27.021Z,33.83
2022-09-11T06:21:02.448Z,37.50
2022-09-11T06:23:29.069Z,33.25
2022-09-11T06:26:07.711Z,34.63
2022-09-11T06:28:35.778Z,32.13
2022-09-11T06:31:13.388Z,33.00
2022-09-11T06:33:40.998Z,35.80
2022-09-11T06:36:38.949Z,33.20
2022-09-11T06:39:05.471Z,34.85
2022-09-11T06:41:32.694Z,34.85
2022-09-11T06:43:59.151Z,37.22
2022-09-11T06:46:26.371Z,35.38
2022-09-11T06:48:53.787Z,37.03
2022-09-11T06:51:22.409Z,35.33
2022-09-11T06:53:49.106Z,34.80
2022-09-11T06:56:18.205Z,35.10
2022-09-11T06:58:45.861Z,34.45
2022-09-11T07:01:17.682Z,33.45
2022-09-11T07:03:45.600Z,33.08
2022-09-11T07:06:13.489Z,32.88
2022-09-11T07:08:40.169Z,33.45
2022-09-11T07:11:08.222Z,31.77
2022-09-11T07:13:37.424Z,32.03
2022-09-11T07:16:07.687Z,30.25
2022-09-11T07:18:41.258Z,28.58
2022-09-11T07:21:12.937Z,29.95
2022-09-11T07:23:40.928Z,31.75
2022-09-11T07:26:11.259Z,29.15
2022-09-11T07:28:38.714Z,28.48
2022-09-11T07:31:10.435Z,29.48
2022-09-11T07:33:45.479Z,27.63
2022-09-11T07:36:14.375Z,29.08
2022-09-11T07:38:42.692Z,27.75
2022-09-11T07:41:10.661Z,26.90
2022-09-11T07:43:38.635Z,27.48
2022-09-11T07:46:06.255Z,31.38
2022-09-11T07:48:32.811Z,28.98
2022-09-11T07:51:04.924Z,24.73
2022-09-11T07:53:35.465Z,27.48
2022-09-11T07:56:03.851Z,27.67
2022-09-11T07:58:38.996Z,27.50
2022-09-11T08:03:34.299Z,28.58
2022-09-11T08:06:02.271Z,27.08
2022-09-11T08:08:29.286Z,30.05
2022-09-11T08:11:10.227Z,28.75
2022-09-11T08:13:36.980Z,25.25
2022-09-11T08:16:03.642Z,26.67
2022-09-11T08:18:30.914Z,25.60
2022-09-11T08:21:12.631Z,26.58
2022-09-11T08:23:41.392Z,23.85
2022-09-11T08:26:25.832Z,24.52
2022-09-11T08:28:54.368Z,25.25
2022-09-11T08:31:26.250Z,24.77
2022-09-11T08:33:54.680Z,25.35
2022-09-11T08:36:22.643Z,24.38
2022-09-11T08:38:49.280Z,25.63
2022-09-11T08:41:27.511Z,24.02
2022-09-11T08:43:57.965Z,24.88
2022-09-11T08:46:31.025Z,24.67
2022-09-11T08:49:18.906Z,26.00
2022-09-11T08:51:47.114Z,26.50
2022-09-11T08:54:34.558Z,23.52
2022-09-11T08:57:23.319Z,26.10
2022-09-11T09:00:21.847Z,22.52
2022-09-11T09:02:57.238Z,23.38
2022-09-11T09:05:50.077Z,23.65
2022-09-11T09:08:35.092Z,24.75
2022-09-11T09:11:10.720Z,22.67
2022-09-11T09:14:06.313Z,24.52
2022-09-11T09:16:45.377Z,23.80
2022-09-11T09:19:29.225Z,25.27
2022-09-11T09:22:19.093Z,24.17
2022-09-11T09:24:50.028Z,24.27
2022-09-11T09:27:25.596Z,21.92
2022-09-11T09:29:58.462Z,23.23
2022-09-11T09:32:58.528Z,23.95
2022-09-11T09:35:34.593Z,21.13
2022-09-11T09:38:01.024Z,20.85
2022-09-11T09:40:33.271Z,21.85
2022-09-11T09:43:07.950Z,19.58
2022-09-11T09:45:48.528Z,22.40
2022-09-11T09:48:15.352Z,21.17
2022-09-11T09:50:46.057Z,21.40
2022-09-11T09:53:32.417Z,22.52
2022-09-11T09:56:00.511Z,22.77
2022-09-11T09:58:33.696Z,21.10
2022-09-11T10:01:00.458Z,20.85
2022-09-11T10:03:27.049Z,21.77
2022-09-11T10:05:55.893Z,22.42
2022-09-11T10:08:37.520Z,22.45
2022-09-11T10:11:05.853Z,21.27
2022-09-11T10:13:36.745Z,20.55
2022-09-11T10:16:19.165Z,20.83
2022-09-11T10:18:47.057Z,20.02
2022-09-11T10:21:13.752Z,20.20
2022-09-11T10:23:50.580Z,23.92
2022-09-11T10:26:26.846Z,21.35
2022-09-11T10:29:04.956Z,21.27
2022-09-11T10:31:31.444Z,23.70
2022-09-11T10:33:59.590Z,22.80
2022-09-11T10:36:28.603Z,20.00
2022-09-11T10:39:01.004Z,19.77
2022-09-11T10:41:32.122Z,20.85
2022-09-11T10:44:13.033Z,18.55
2022-09-11T10:46:41.930Z,18.20
2022-09-11T10:49:17.415Z,20.67
2022-09-11T10:52:17.230Z,21.75
2022-09-11T10:55:00.021Z,21.95
2022-09-11T10:57:39.804Z,20.40
2022-09-11T11:00:21.025Z,19.98
2022-09-11T11:02:53.742Z,22.02
2022-09-11T11:06:04.671Z,20.20
2022-09-11T11:08:57.358Z,18.05
2022-09-11T11:11:24.159Z,17.80
2022-09-11T11:14:13.232Z,18.65
2022-09-11T11:17:07.662Z,20.08
2022-09-11T11:19:51.889Z,20.23
2022-09-11T11:22:45.305Z,19.45
2022-09-11T11:25:28.511Z,20.52
2022-09-11T11:28:15.069Z,18.67
2022-09-11T11:30:47.509Z,17.92
2022-09-11T11:33:23.949Z,16.40
2022-09-11T11:36:10.318Z,14.90
2022-09-11T11:39:02.000Z,18.77
2022-09-11T11:41:38.992Z,16.85
2022-09-11T11:44:12.137Z,13.32
2022-09-11T11:46:45.002Z,11.65
2022-09-11T11:49:37.700Z,9.57
2022-09-11T11:52:18.033Z,10.70
2022-09-11T11:55:20.639Z,11.57
2022-09-11T11:58:01.293Z,12.18
2022-09-11T12:00:29.660Z,12.05
2022-09-11T12:03:12.935Z,13.43
2022-09-11T12:05:39.449Z,11.75
2022-09-11T12:08:13.165Z,10.77
2022-09-11T12:10:42.937Z,9.82
2022-09-11T12:13:18.313Z,10.05
2022-09-11T12:16:11.280Z,12.07
2022-09-11T12:18:38.627Z,12.48
2022-09-11T12:21:35.613Z,10.10
2022-09-11T12:24:02.607Z,11.52
2022-09-11T12:26:33.213Z,9.52
2022-09-11T12:29:12.240Z,8.25
2022-09-11T12:31:52.273Z,9.27
2022-09-11T12:34:24.784Z,9.30
2022-09-11T12:37:06.851Z,10.68
2022-09-11T12:39:39.476Z,10.18
2022-09-11T12:42:22.885Z,9.70
2022-09-11T12:44:49.245Z,10.38
2022-09-11T12:47:24.533Z,9.98
2022-09-11T12:50:02.455Z,10.18
2022-09-11T12:52:40.151Z,9.00
2022-09-11T12:55:27.878Z,9.52
2022-09-11T12:57:55.003Z,10.15
2022-09-11T13:00:42.119Z,9.95
2022-09-11T13:03:19.058Z,8.88
2022-09-11T13:05:55.150Z,10.77
2022-09-11T13:08:26.159Z,9.70
2022-09-11T13:10:52.731Z,11.15
2022-09-11T13:13:34.617Z,11.07
2022-09-11T13:16:34.870Z,10.55
2022-09-11T13:19:07.465Z,11.65
2022-09-11T13:21:36.730Z,9.85
2022-09-11T13:24:03.834Z,10.85
2022-09-11T13:26:31.429Z,10.43
2022-09-11T13:29:00.853Z,8.98
2022-09-11T13:31:34.697Z,9.10
2022-09-11T13:34:05.787Z,7.82
2022-09-11T13:36:36.205Z,9.52
2022-09-11T13:39:04.263Z,8.70
2022-09-11T13:41:39.973Z,7.13
2022-09-11T13:44:11.889Z,7.28
2022-09-11T13:46:50.429Z,7.22
2022-09-11T13:49:32.336Z,7.35
2022-09-11T13:51:59.222Z,7.90
2022-09-11T13:54:32.324Z,8.38
2022-09-11T13:57:01.515Z,8.25
2022-09-11T13:59:41.482Z,8.07
2022-09-11T14:02:46.848Z,7.68
2022-09-11T14:05:32.517Z,7.82
2022-09-11T14:08:32.703Z,7.50
2022-09-11T14:11:15.641Z,6.53
2022-09-11T14:14:05.240Z,6.93
2022-09-11T14:16:35.208Z,7.80
2022-09-11T14:19:24.525Z,7.28
2022-09-11T14:21:51.279Z,7.63
2022-09-11T14:24:28.471Z,7.00
2022-09-11T14:26:58.513Z,6.82
2022-09-11T14:29:32.639Z,6.50
2022-09-11T14:32:24.169Z,7.37
2022-09-11T14:34:50.509Z,7.22
2022-09-11T14:37:17.454Z,6.47
2022-09-11T14:39:47.855Z,6.70
2022-09-11T14:42:21.566Z,6.05
2022-09-11T14:44:48.504Z,6.50
2022-09-11T14:47:24.410Z,8.07
2022-09-11T14:49:55.759Z,7.72
2022-09-11T14:52:27.631Z,7.43
2022-09-11T14:54:54.559Z,8.77
2022-09-11T14:57:23.771Z,8.25
2022-09-11T14:59:51.175Z,9.68
2022-09-11T15:02:21.218Z,9.27
2022-09-11T15:04:48.734Z,9.55
2022-09-11T15:07:17.055Z,8.85
2022-09-11T15:09:43.655Z,8.05
2022-09-11T15:12:12.179Z,7.88
2022-09-11T15:14:58.240Z,8.98
2022-09-11T15:17:25.560Z,8.18
2022-09-11T15:19:52.612Z,9.18
2022-09-11T15:22:19.512Z,9.95
2022-09-11T15:24:49.002Z,9.57
2022-09-11T15:27:15.674Z,8.68
2022-09-11T15:29:42.507Z,9.38
2022-09-11T15:32:09.729Z,11.00
2022-09-11T15:34:38.585Z,9.00
2022-09-11T15:37:05.370Z,9.40
2022-09-11T15:39:31.990Z,9.20
2022-09-11T15:41:58.435Z,8.88
2022-09-11T15:44:27.410Z,8.93
2022-09-11T15:46:55.376Z,8.52
2022-09-11T15:49:23.338Z,9.40
2022-09-11T15:51:51.647Z,8.20
2022-09-11T15:54:18.422Z,9.13
2022-09-11T15:56:46.284Z,7.95
2022-09-11T15:59:15.153Z,8.82
2022-09-11T16:01:42.670Z,9.70
2022-09-11T16:04:11.677Z,9.45
2022-09-11T16:06:40.669Z,8.77
2022-09-11T16:09:11.127Z,9.07
2022-09-11T16:11:39.815Z,8.20
2022-09-11T16:14:06.868Z,8.85
2022-09-11T16:16:34.311Z,8.70
2022-09-11T16:19:01.677Z,9.43
2022-09-11T16:21:28.581Z,10.18
2022-09-11T16:24:00.762Z,8.98
2022-09-11T16:26:28.978Z,9.13
2022-09-11T16:28:55.531Z,9.85
2022-09-11T16:31:21.998Z,8.60
2022-09-11T16:33:49.907Z,7.63
2022-09-11T16:36:21.118Z,8.32
2022-09-11T16:38:50.179Z,8.68
2022-09-11T16:41:21.426Z,8.77
2022-09-11T16:43:50.883Z,8.10
2022-09-11T16:46:22.798Z,8.02
2022-09-11T16:48:53.968Z,8.82
2022-09-11T16:51:22.240Z,8.10
2022-09-11T16:53:49.249Z,8.30
2022-09-11T16:56:18.916Z,7.95
2022-09-11T16:58:46.569Z,8.05
2022-09-11T17:01:19.355Z,8.10
2022-09-11T17:03:48.102Z,7.20
2022-09-11T17:06:16.191Z,6.93
2022-09-11T17:08:44.675Z,7.55
2022-09-11T17:11:13.979Z,8.23
2022-09-11T17:13:42.548Z,8.23
2022-09-11T17:16:16.087Z,7.70
2022-09-11T17:18:48.628Z,7.20
2022-09-11T17:21:16.289Z,7.97
2022-09-11T17:23:42.741Z,8.35
2022-09-11T17:26:12.524Z,7.60
2022-09-11T17:28:40.359Z,8.75
2022-09-11T17:31:09.052Z,8.38
2022-09-11T17:33:38.461Z,7.13
2022-09-11T17:36:06.002Z,7.13
2022-09-11T17:38:32.887Z,8.27
2022-09-11T17:41:01.674Z,8.25
2022-09-11T17:43:28.089Z,7.78
2022-09-11T17:46:07.190Z,8.02
2022-09-11T17:48:33.778Z,7.93
2022-09-11T17:51:06.713Z,7.82
2022-09-11T17:53:38.481Z,8.60
2022-09-11T17:56:09.688Z,8.73
2022-09-11T17:58:37.065Z,8.55
2022-09-11T18:01:04.166Z,8.15
2022-09-11T18:03:31.742Z,7.90
2022-09-11T18:05:59.597Z,9.02
2022-09-11T18:08:27.273Z,8.32
2022-09-11T18:10:59.231Z,8.30
2022-09-11T18:13:27.689Z,8.65
2022-09-11T18:15:56.096Z,8.38
2022-09-11T18:18:23.631Z,8.07
2022-09-11T18:20:53.811Z,8.13
2022-09-11T18:23:23.908Z,8.15
2022-09-11T18:25:51.440Z,8.60
2022-09-11T18:28:20.138Z,7.85
2022-09-11T18:30:47.288Z,8.73
2022-09-11T18:33:16.526Z,8.88
2022-09-11T18:35:44.023Z,8.80
2022-09-11T18:38:10.794Z,8.48
2022-09-11T18:40:37.524Z,8.50
2022-09-11T18:43:05.347Z,8.15
2022-09-11T18:45:35.467Z,8.95
2022-09-11T18:48:03.301Z,8.90
2022-09-11T18:50:29.923Z,9.20
2022-09-11T18:52:56.562Z,9.20
2022-09-11T18:55:22.995Z,9.52
2022-09-11T18:57:50.578Z,9.25
2022-09-11T19:00:18.290Z,9.20
2022-09-11T19:02:46.675Z,9.02
2022-09-11T19:05:15.917Z,9.70
2022-09-11T19:07:43.885Z,9.82
2022-09-11T19:10:12.542Z,10.48
2022-09-11T19:12:40.769Z,10.23
2022-09-11T19:15:08.843Z,9.95
2022-09-11T19:17:36.739Z,10.43
2022-09-11T19:20:09.620Z,10.57
2022-09-11T19:22:36.231Z,9.65
2022-09-11T19:25:02.797Z,10.00
2022-09-11T19:27:31.575Z,10.27
2022-09-11T19:29:58.234Z,10.50
2022-09-11T19:32:25.289Z,10.00
2022-09-11T19:34:51.790Z,9.70
2022-09-11T19:37:20.898Z,9.98
2022-09-11T19:39:51.817Z,10.50
2022-09-11T19:42:18.857Z,9.68
2022-09-11T19:44:45.456Z,10.48
2022-09-11T19:47:12.419Z,10.57
2022-09-11T19:49:38.833Z,9.68
2022-09-11T19:52:06.458Z,11.75
2022-09-11T19:54:34.583Z,10.07
2022-09-11T19:57:02.228Z,10.85
2022-09-11T19:59:28.665Z,11.13
2022-09-11T20:01:55.210Z,10.68
2022-09-11T20:04:22.042Z,10.85
2022-09-11T20:09:30.480Z,11.38
2022-09-11T20:12:00.519Z,11.57
2022-09-11T20:14:27.565Z,11.90
2022-09-11T20:16:54.114Z,10.95
2022-09-11T20:19:20.572Z,10.98
2022-09-11T20:21:47.056Z,11.55
2022-09-11T20:24:14.836Z,11.38
2022-09-11T20:26:41.378Z,10.20
2022-09-11T20:29:12.124Z,10.80
2022-09-11T20:31:48.684Z,11.60
2022-09-11T20:34:20.024Z,11.23
2022-09-11T20:36:46.875Z,11.95
2022-09-11T20:39:14.343Z,11.05
2022-09-11T20:41:41.134Z,10.60
2022-09-11T20:44:07.987Z,11.43
2022-09-11T20:46:34.503Z,10.25
2022-09-11T20:49:01.058Z,11.48
2022-09-11T20:51:27.895Z,11.85
2022-09-11T20:53:55.572Z,10.13
2022-09-11T20:56:24.946Z,10.18
2022-09-11T20:58:52.043Z,10.23
2022-09-11T21:01:21.550Z,9.07
2022-09-11T21:03:56.325Z,8.70
2022-09-11T21:06:26.340Z,9.65
2022-09-11T21:08:55.851Z,9.48
2022-09-11T21:11:23.602Z,9.55
2022-09-11T21:13:50.087Z,8.73
2022-09-11T21:16:17.346Z,9.20
2022-09-11T21:18:53.191Z,8.38
2022-09-11T21:21:20.863Z,7.88
2022-09-11T21:23:48.088Z,7.93
2022-09-11T21:26:17.030Z,8.75
2022-09-11T21:28:43.558Z,7.35
2022-09-11T21:31:10.705Z,8.13
2022-09-11T21:33:38.134Z,8.18
2022-09-11T21:36:05.795Z,8.85
2022-09-11T21:38:32.903Z,8.23
2022-09-11T21:41:01.675Z,8.05
2022-09-11T21:43:28.675Z,8.15
2022-09-11T21:45:55.460Z,8.70
2022-09-11T21:48:22.085Z,6.97
2022-09-11T21:50:48.706Z,8.15
2022-09-11T21:53:15.597Z,8.05
2022-09-11T21:55:44.786Z,8.82
2022-09-11T21:58:17.824Z,7.93
2022-09-11T22:00:45.288Z,8.25
2022-09-11T22:03:12.429Z,8.52
2022-09-11T22:05:42.922Z,7.85
2022-09-11T22:08:10.479Z,7.72
2022-09-11T22:10:42.648Z,8.30
2022-09-11T22:13:10.510Z,7.78
2022-09-11T22:15:41.206Z,8.32
2022-09-11T22:18:08.241Z,7.95
2022-09-11T22:20:37.547Z,8.63
2022-09-11T22:23:04.916Z,7.72
2022-09-11T22:25:31.831Z,7.60
2022-09-11T22:27:58.377Z,8.02
2022-09-11T22:30:24.871Z,8.80
2022-09-11T22:32:51.374Z,8.18
2022-09-11T22:35:17.765Z,8.05
2022-09-11T22:37:44.261Z,8.23
2022-09-11T22:40:10.873Z,9.07
2022-09-11T22:42:37.407Z,8.60
2022-09-11T22:45:04.079Z,7.60
2022-09-11T22:47:30.689Z,7.60
2022-09-11T22:49:58.226Z,8.32
2022-09-11T22:52:24.800Z,8.02
2022-09-11T22:54:51.261Z,7.47
2022-09-11T22:57:17.693Z,7.72
2022-09-11T22:59:46.984Z,8.82
2022-09-11T23:02:14.791Z,8.13
2022-09-11T23:05:01.437Z,8.15
2022-09-11T23:07:28.037Z,8.38
2022-09-11T23:09:54.557Z,8.23
2022-09-11T23:12:20.916Z,8.98
2022-09-11T23:14:47.524Z,8.07
2022-09-11T23:17:14.130Z,7.95
2022-09-11T23:19:40.596Z,8.02
2022-09-11T23:22:07.048Z,7.65
2022-09-11T23:24:33.978Z,9.25
2022-09-11T23:27:00.341Z,7.97
2022-09-11T23:29:27.193Z,9.00
2022-09-11T23:31:56.394Z,8.57
2022-09-11T23:34:22.855Z,8.60
2022-09-11T23:36:49.225Z,8.85
2022-09-11T23:39:15.979Z,8.18
2022-09-11T23:41:42.382Z,8.55
2022-09-11T23:44:09.066Z,8.60
2022-09-11T23:46:35.485Z,9.52
2022-09-11T23:49:02.076Z,9.13
2022-09-11T23:51:28.514Z,8.15
2022-09-11T23:53:55.062Z,8.05
2022-09-11T23:56:22.367Z,8.73
2022-09-11T23:58:49.867Z,7.30
